MU56 weather

CLOSED Brown Field
Broseley, Missouri, United States

Public forecast

Using degrees Fahrenheit for public forecast. Weather courtesy of forecast.io.

Closest aviation weather report (METAR) to Brown Field

Closest report is Poplar Bluff Municipal Airport, 4.8 nm (8.8 km) NW. Retrieved 2020/07/08 04:53 UTC (49 minutes ago):

KPOF 080453Z AUTO 00000KT 10SM CLR 25/23 A2995 RMK AO2 SLP134 T02500233

Closest aviation forecast (TAF) to Brown Field

Closest forecast is Cape Girardeau Regional Airport, 45.6 nm (84.5 km) NE. Retrieved 2020-07-08 00:36 UTC (5 hours ago):

TAF KCGI 072333Z 0800/0824 VRB03KT P6SM FEW060 SCT200 FM080200 VRB03KT P6SM SCT250 FM080400 00000KT 4SM BR MIFG SKC FM081700 VRB03KT P6SM VCTS SCT100CB FM081800 VRB04KT P6SM SCT045 FM082200 VRB04KT P6SM SCT100